Terminal Aerodrome Forecast
Issued by NWS Jackson, MS

Home | Current Version | Previous Version | Text Only | Print | Product List | Glossary On
Versions: 1 2 3 4 5 6 7 8 9 10 11 12 13 14 15 16
000
FTUS44 KJAN 252320
TAFJAN
TAF
KJAN 252320Z 2600/2624 16010KT P6SM SCT050
     FM260900 16004KT P6SM OVC015
     FM261200 16003KT 6SM BR OVC007
     FM261400 17005KT P6SM OVC025
     FM261700 17008KT P6SM OVC050=

USA.gov is the U.S. government's official web portal to all federal, state and local government web resources and services.